メインページ
METAR-TAF:

METAR-TAF

空港 :

カンザスシティ国際空港

カンザスシティ, ミズーリ州, アメリカ合衆国

緯度: 39-17-50N, 経度: 094-43-50W, 海抜: 312m

現時点の気象観測

当レポートは30分前の22:53(UTC)に作成
南/南東の風 7kt
気温 24°C
湿度 61%
気圧 1011 hPa
視程: 16.1km
高度3400ftの雲はほとんどない

METAR: KMCI 242253Z 16007KT 10SM FEW034 24/16 A2984 RMK AO2 SLP095 T02440161

時間: 18:23 (23:23 UTC)

予報

当レポートは6時間3分前の17:20(UTC)に作成
予報は24日の 18時(UTC)から 25日の 18時(UTC)まで有効
の風 9kt
視程: 10km
高度2500ftの千切れ雲あり
24日の 2000時(UTC)から
の風 6kt
視程: 10km
高度3500ftの千切れ雲あり
25日の 0900時(UTC)から
の風 5kt
視程: 10km
高度2000ftの千切れ雲あり
25日の 1200時(UTC)から
南西の風 5kt
視程: 10km
高度1000ftの千切れ雲あり
25日の 1600時(UTC)から
西の風 7kt
視程: 10km
高度2000ftの千切れ雲あり

TAF: KMCI 241720Z 2418/2518 17009KT P6SM BKN025 FM242000 18006KT P6SM BKN035 FM250900 18005KT P6SM BKN020 FM251200 22005KT P6SM BKN010 FM251600 28007KT P6SM BKN020

4,000以上の空港の気象観測と天気予報(METAR報とTAF報)

利用可能な観測所は地図上に黄色い丸と赤い丸で示す。

丸の上にカーソルを重ねると観測所名を参照できる。

次にクリックすると気象観測と天気予報を参照できる。

マップの切り替え:黒色「×」印の緑ボタンをクリックして拡大、「-」印の緑ボタンをクリックして縮小、緑色の三角印をクリックして隣りの地図に切り替え


METAR-TAF: